Seana C — WDJ3319 — position and weather

sailwx.info

Track history (hours):
 
Tides and Currents Weather Stations Pressure Air Temp Water Temp Dewpoint Dewpoint Depression Visibility Wind Speed Wind Dir Waves Ship Positions

Seana C

Owner: Curtin Maritime Corp, long beach, CA. More information available from US FCC via Universal Licensing System and Coast Guard Vessel Documentation Center.

Last reported at 2018-Jan-04 21:09 UTC. Time now 2018-Jan-18 15:43 UTC.
Position N 33°46' W 118°13'.
Warning: this ship's position is 13 days out of date.

Length 21 m; draft 3 m.

Type: Tug. MMSI: 367766860.

Date/timePositionNaut miles runAvg speedWind from/ knotsBaromVisibWave heightAir tempDewpointWater temp
2018-Jan-04 21:09N 33°46' W 118°13'0 0.0
2018-Jan-04 21:00N 33°46' W 118°13'0 0.0
2018-Jan-04 20:30N 33°46' W 118°13'0 0.1
2018-Jan-04 20:00N 33°46' W 118°13'0 0.0
2018-Jan-04 18:59N 33°46' W 118°13'0 0.1
2018-Jan-04 18:30N 33°46' W 118°13'0 0.0
2018-Jan-04 11:12N 33°46' W 118°13'0 0.7
2018-Jan-04 10:54N 33°46' W 118°13'4 7.2
2018-Jan-04 10:25N 33°43' W 118°15'1 2.4
2018-Jan-04 10:00N 33°43' W 118°16'0 0.0
2018-Jan-04 07:10N 33°43' W 118°16'2 7.5
2018-Jan-04 06:54N 33°43' W 118°14'3 7.2
2018-Jan-04 06:30N 33°46' W 118°13'3 0.1
2018-Jan-02 20:12N 33°43' W 118°14'2 3.7
2018-Jan-02 19:39N 33°43' W 118°16'0 0.1
2018-Jan-02 19:30N 33°43' W 118°16'0 0.0
2018-Jan-02 18:53N 33°43' W 118°16'0 0.4
2018-Jan-02 17:33N 33°43' W 118°16'0 2.8
2018-Jan-02 17:25N 33°43' W 118°16'0 0.3
2018-Jan-02 17:00N 33°43' W 118°16'  
Track history (hours):
 
Tides and Currents Weather Stations Pressure Air Temp Water Temp Dewpoint Dewpoint Depression Visibility Wind Speed Wind Dir Waves Ship Positions

Seana C

Owner: Curtin Maritime Corp, long beach, CA. More information available from US FCC via Universal Licensing System and Coast Guard Vessel Documentation Center.

Last reported at 2018-Jan-04 21:09 UTC. Time now 2018-Jan-18 15:43 UTC.
Position N 33°46' W 118°13'.
Warning: this ship's position is 13 days out of date.

Length 21 m; draft 3 m.

Type: Tug. MMSI: 367766860.

Date/timePositionNaut miles runAvg speedWind from/ knotsBaromVisibWave heightAir tempDewpointWater temp
2018-Jan-04 21:09N 33°46' W 118°13'0 0.0
2018-Jan-04 21:00N 33°46' W 118°13'0 0.0
2018-Jan-04 20:30N 33°46' W 118°13'0 0.1
2018-Jan-04 20:00N 33°46' W 118°13'0 0.0
2018-Jan-04 18:59N 33°46' W 118°13'0 0.1
2018-Jan-04 18:30N 33°46' W 118°13'0 0.0
2018-Jan-04 11:12N 33°46' W 118°13'0 0.7
2018-Jan-04 10:54N 33°46' W 118°13'4 7.2
2018-Jan-04 10:25N 33°43' W 118°15'1 2.4
2018-Jan-04 10:00N 33°43' W 118°16'0 0.0
2018-Jan-04 07:10N 33°43' W 118°16'2 7.5
2018-Jan-04 06:54N 33°43' W 118°14'3 7.2
2018-Jan-04 06:30N 33°46' W 118°13'3 0.1
2018-Jan-02 20:12N 33°43' W 118°14'2 3.7
2018-Jan-02 19:39N 33°43' W 118°16'0 0.1
2018-Jan-02 19:30N 33°43' W 118°16'0 0.0
2018-Jan-02 18:53N 33°43' W 118°16'0 0.4
2018-Jan-02 17:33N 33°43' W 118°16'0 2.8
2018-Jan-02 17:25N 33°43' W 118°16'0 0.3
2018-Jan-02 17:00N 33°43' W 118°16'  

Dump ship's entire track history